Time;durP1;ratioP1;P1;durP2;ratioP2;P2;SDS_P1;SDS_P2;PMS_P1;PMS_P2;Temp;Humidity;BMP_temperature;BMP_pressure;BME280_temperature;BME280_humidity;BME280_pressure;Samples;Min_cycle;Max_cycle;Signal;HPM_P1;HPM_P2
2020/12/08 00:10:05;;;;;;;58.00;29.33;;;;;;;-0.05;81.33;97948.23;515233;1095;104987;-40
2020/12/08 00:20:10;;;;;;;52.23;26.93;;;;;;;-0.09;81.70;97952.18;515304;1095;104550;-42
2020/12/08 00:30:16;;;;;;;62.40;29.40;;;;;;;-0.19;82.16;97938.66;515368;1095;104587;-39
2020/12/08 00:40:20;;;;;;;55.27;28.53;;;;;;;-0.05;81.80;97942.23;515338;1095;104870;-41
2020/12/08 00:50:25;;;;;;;48.97;24.17;;;;;;;-0.17;82.23;97935.87;515501;1095;104845;-40
2020/12/08 01:11:07;;;;;;;43.10;22.30;;;;;;;-0.22;81.61;97944.20;513516;1098;105220;-39
2020/12/08 01:21:15;;;;;;;47.13;25.70;;;;;;;-0.35;82.37;97947.41;513175;1098;104909;-40
2020/12/08 01:31:20;;;;;;;39.23;20.77;;;;;;;-0.32;82.04;97941.05;513100;1098;104803;-44
2020/12/08 01:41:24;;;;;;;41.37;20.47;;;;;;;-0.41;82.47;97953.31;513616;1097;104663;-39
2020/12/08 01:51:29;;;;;;;51.97;26.33;;;;;;;-0.53;82.28;97948.70;515280;1095;104583;-41
2020/12/08 02:01:34;;;;;;;42.40;22.57;;;;;;;-0.56;82.35;97943.87;515184;1095;104707;-40
2020/12/08 02:11:39;;;;;;;55.73;25.73;;;;;;;-0.69;82.11;97936.69;515215;1095;104638;-39
2020/12/08 02:21:44;;;;;;;44.90;22.85;;;;;;;-0.73;82.53;97936.20;515367;1095;104586;-39
2020/12/08 02:31:48;;;;;;;44.67;20.53;;;;;;;-0.72;82.63;97953.39;516012;1089;104599;-41
2020/12/08 02:41:54;;;;;;;48.17;24.50;;;;;;;-0.70;82.70;97964.44;515228;1095;104580;-41
2020/12/08 02:51:59;;;;;;;49.03;26.73;;;;;;;-0.73;82.90;97956.17;515268;1095;104612;-41
2020/12/08 03:02:04;;;;;;;50.07;23.57;;;;;;;-0.76;82.76;97951.33;515247;1095;104573;-40
2020/12/08 03:12:10;;;;;;;41.43;21.83;;;;;;;-0.76;82.61;97959.92;515229;1095;104580;-41
2020/12/08 03:22:15;;;;;;;40.77;20.30;;;;;;;-0.90;82.93;97957.30;515241;1095;104586;-40
2020/12/08 03:32:20;;;;;;;44.07;21.07;;;;;;;-0.96;82.75;97969.14;515175;1095;104533;-41
2020/12/08 03:42:25;;;;;;;32.67;19.90;;;;;;;-0.99;82.66;97974.69;515250;1095;104599;-42
2020/12/08 03:52:33;;;;;;;36.87;18.93;;;;;;;-0.99;82.54;97970.30;515321;1095;104599;-41
2020/12/08 04:02:42;;;;;;;42.30;22.90;;;;;;;-0.96;82.28;97969.14;515143;1095;104579;-41
2020/12/08 04:12:47;;;;;;;41.55;18.45;;;;;;;-1.00;82.63;97989.45;515172;1095;104685;-41
2020/12/08 04:22:52;;;;;;;38.23;19.30;;;;;;;-0.97;82.43;97981.31;515342;1095;104625;-40
2020/12/08 04:32:57;;;;;;;39.87;19.50;;;;;;;-1.00;82.38;97970.48;515229;1095;104964;-39
2020/12/08 04:43:05;;;;;;;43.40;22.77;;;;;;;-1.10;82.81;97965.52;515308;1095;105024;-39
2020/12/08 04:53:09;;;;;;;39.90;19.90;;;;;;;-1.10;82.76;97956.94;515321;1095;104541;-40
2020/12/08 05:03:22;;;;;;;33.97;18.17;;;;;;;-1.12;82.52;97958.89;515314;1095;104567;-40
2020/12/08 05:13:27;;;;;;;41.57;20.63;;;;;;;-1.24;82.59;97964.45;515315;1095;105967;-40
2020/12/08 05:23:38;;;;;;;35.30;17.37;;;;;;;-1.30;83.03;97975.52;515242;1095;105015;-39
2020/12/08 05:33:51;;;;;;;39.63;20.23;;;;;;;-1.36;82.49;97970.22;515357;1095;104576;-39
2020/12/08 05:44:03;;;;;;;40.63;19.03;;;;;;;-1.40;82.76;97987.09;515268;1095;104602;-41
2020/12/08 05:54:11;;;;;;;49.40;19.67;;;;;;;-1.43;82.45;97998.59;515243;1095;104916;-40
2020/12/08 06:04:16;;;;;;;45.47;19.67;;;;;;;-1.41;82.60;98012.22;515433;1095;104941;-38
2020/12/08 06:14:32;;;;;;;44.57;21.57;;;;;;;-1.36;83.30;98019.48;515315;1095;104743;-41
2020/12/08 06:24:47;;;;;;;45.27;21.10;;;;;;;-1.30;83.16;98044.74;515348;1095;106005;-39
2020/12/08 06:35:02;;;;;;;39.50;19.47;;;;;;;-1.28;82.78;98053.97;515259;1095;104574;-40
2020/12/08 06:45:07;;;;;;;33.47;18.73;;;;;;;-1.32;82.68;98050.09;515391;1095;104632;-40
2020/12/08 06:55:11;;;;;;;39.77;19.87;;;;;;;-1.37;83.39;98069.74;515250;1095;104580;-40
2020/12/08 07:05:17;;;;;;;43.77;19.27;;;;;;;-1.37;82.76;98067.95;515211;1095;104631;-40
2020/12/08 07:15:23;;;;;;;59.43;22.93;;;;;;;-1.38;82.86;98068.93;515286;1095;104580;-40
2020/12/08 07:25:28;;;;;;;75.60;28.03;;;;;;;-1.34;82.73;98067.62;515510;1095;104614;-39
2020/12/08 07:45:53;;;;;;;51.02;23.52;;;;;;;-1.12;82.78;98091.20;515284;1095;104616;-40
2020/12/08 07:55:58;;;;;;;51.90;24.37;;;;;;;-0.97;82.76;98086.91;515308;1095;104640;-39
2020/12/08 08:06:03;;;;;;;49.03;21.27;;;;;;;-0.94;83.10;98095.19;515177;1095;104852;-39
2020/12/08 08:16:09;;;;;;;44.20;19.70;;;;;;;-0.90;82.59;98087.05;515463;1095;104612;-39
2020/12/08 08:26:15;;;;;;;50.20;24.27;;;;;;;-0.80;82.78;98085.84;515253;1095;104586;-38
2020/12/08 08:46:55;;;;;;;48.50;21.83;;;;;;;-0.69;82.42;98095.86;515367;1095;104641;-39
2020/12/08 08:56:59;;;;;;;51.67;24.73;;;;;;;-0.58;83.09;98101.63;515612;1095;104993;-38
2020/12/08 09:07:03;;;;;;;45.23;22.33;;;;;;;-0.33;82.93;98103.09;515308;1095;105250;-39
2020/12/08 09:17:08;;;;;;;51.83;23.87;;;;;;;-0.26;82.31;98106.59;515395;1095;104593;-39
2020/12/08 09:27:14;;;;;;;57.37;28.07;;;;;;;-0.11;82.74;98109.27;515333;1095;104586;-40
2020/12/08 09:37:19;;;;;;;67.67;28.70;;;;;;;0.11;82.21;98100.63;515465;1095;104615;-40
2020/12/08 09:47:24;;;;;;;52.37;24.37;;;;;;;0.24;82.01;98092.24;515274;1095;104919;-39
2020/12/08 09:57:30;;;;;;;64.40;30.03;;;;;;;0.37;82.32;98087.22;515402;1095;104936;-42
2020/12/08 10:07:48;;;;;;;52.27;23.47;;;;;;;0.54;81.64;98106.89;515455;1095;104579;-41
2020/12/08 10:17:54;;;;;;;47.00;23.97;;;;;;;0.57;81.60;98101.33;515451;1095;105535;-40
2020/12/08 10:27:58;;;;;;;48.37;23.67;;;;;;;0.78;81.59;98094.60;515277;1095;104670;-39
2020/12/08 10:58:42;;;;;;;42.23;24.20;;;;;;;1.27;81.42;98084.38;515236;1095;105114;-41
2020/12/08 11:08:48;;;;;;;44.27;22.40;;;;;;;1.44;81.01;98103.20;515255;1095;104579;-40
2020/12/08 11:18:54;;;;;;;59.90;29.57;;;;;;;1.60;80.91;98115.98;515306;1095;104570;-40
2020/12/08 11:29:00;;;;;;;38.77;23.33;;;;;;;1.60;80.75;98115.17;515335;1095;104567;-39
2020/12/08 11:39:03;;;;;;;49.80;26.60;;;;;;;1.58;80.90;98112.76;515424;1095;104657;-39
2020/12/08 11:49:23;;;;;;;44.93;23.10;;;;;;;1.64;80.31;98113.81;515160;1095;105098;-41
2020/12/08 11:59:28;;;;;;;38.17;22.20;;;;;;;1.60;80.03;98118.59;515134;1095;104609;-39
2020/12/08 12:09:32;;;;;;;60.43;31.00;;;;;;;1.53;80.33;98104.70;515240;1095;104635;-40
2020/12/08 12:40:16;;;;;;;92.40;46.47;;;;;;;1.58;80.10;98111.95;515322;1095;104548;-40
2020/12/08 12:50:20;;;;;;;50.40;25.15;;;;;;;1.54;79.69;98107.11;515300;1095;104579;-41
2020/12/08 13:00:25;;;;;;;79.67;38.27;;;;;;;1.37;80.07;98112.73;515322;1095;104599;-40
2020/12/08 13:10:30;;;;;;;52.85;27.25;;;;;;;1.31;79.99;98127.30;515186;1095;104593;-41
2020/12/08 13:20:35;;;;;;;59.17;30.13;;;;;;;0.99;79.92;98131.13;515453;1095;105448;-40
2020/12/08 13:30:44;;;;;;;40.43;22.43;;;;;;;0.91;80.14;98133.80;515272;1095;104576;-40
2020/12/08 13:40:48;;;;;;;60.73;27.60;;;;;;;0.76;80.71;98140.81;515379;1095;104548;-40
2020/12/08 13:50:53;;;;;;;39.43;23.17;;;;;;;0.60;80.18;98139.98;515418;1095;104660;-40
2020/12/08 14:00:58;;;;;;;40.80;22.50;;;;;;;0.46;80.26;98156.37;515185;1095;104622;-40
2020/12/08 14:11:03;;;;;;;53.15;26.80;;;;;;;0.41;80.95;98171.70;515302;1095;105012;-41
2020/12/08 14:21:09;;;;;;;50.60;24.77;;;;;;;0.29;80.54;98155.73;515431;1095;104990;-40
2020/12/08 14:31:14;;;;;;;48.37;24.67;;;;;;;0.19;80.93;98173.34;515499;1095;104620;-42
2020/12/08 14:41:19;;;;;;;44.20;21.83;;;;;;;0.09;80.94;98175.39;515218;1095;104992;-39
2020/12/08 15:01:47;;;;;;;54.80;27.93;;;;;;;-0.13;80.92;98189.19;515241;1095;104945;-40
2020/12/08 15:11:52;;;;;;;53.45;28.45;;;;;;;-0.23;81.39;98194.62;515333;1095;104576;-40
2020/12/08 15:22:03;;;;;;;41.00;22.50;;;;;;;-0.25;81.35;98198.34;515263;1095;105025;-40
2020/12/08 15:32:08;;;;;;;55.47;28.20;;;;;;;-0.38;81.00;98207.52;515346;1095;104624;-40
2020/12/08 15:42:13;;;;;;;46.33;25.90;;;;;;;-0.42;81.72;98202.84;515202;1095;104606;-40
2020/12/08 15:52:18;;;;;;;65.57;30.33;;;;;;;-0.51;81.17;98209.84;515272;1095;105019;-40
2020/12/08 16:02:23;;;;;;;56.67;28.10;;;;;;;-0.56;81.63;98206.14;515384;1095;104579;-40
2020/12/08 16:12:27;;;;;;;49.30;24.70;;;;;;;-0.67;81.65;98208.14;515159;1095;104984;-40
2020/12/08 16:22:33;;;;;;;55.07;28.33;;;;;;;-0.74;82.13;98211.56;515272;1095;104919;-42
2020/12/08 16:32:37;;;;;;;46.70;25.73;;;;;;;-0.79;81.24;98211.25;515295;1095;104577;-39
2020/12/08 16:42:43;;;;;;;53.37;26.43;;;;;;;-0.85;81.47;98220.53;515473;1095;104560;-40
2020/12/08 16:52:48;;;;;;;58.87;27.33;;;;;;;-0.95;81.52;98219.89;515335;1095;105005;-40
2020/12/08 17:02:54;;;;;;;57.60;27.35;;;;;;;-1.01;81.46;98210.99;515429;1095;104577;-41
2020/12/08 17:12:59;;;;;;;66.10;30.60;;;;;;;-1.05;81.59;98217.50;515350;1095;104618;-41
2020/12/08 17:23:09;;;;;;;55.80;28.07;;;;;;;-1.06;82.31;98217.66;515424;1095;104538;-39
2020/12/08 17:33:14;;;;;;;55.23;27.17;;;;;;;-1.13;82.43;98229.69;515184;1095;104580;-40
2020/12/08 17:43:19;;;;;;;52.30;26.43;;;;;;;-1.18;81.73;98229.34;515234;1095;104583;-41
2020/12/08 17:53:25;;;;;;;71.00;30.77;;;;;;;-1.25;82.44;98240.39;515352;1095;105741;-42
2020/12/08 18:03:30;;;;;;;85.17;33.77;;;;;;;-1.29;82.02;98236.51;515176;1095;104683;-39
2020/12/08 18:13:35;;;;;;;77.83;31.70;;;;;;;-1.34;82.43;98241.38;515323;1095;104558;-41
2020/12/08 18:23:40;;;;;;;75.57;31.40;;;;;;;-1.39;82.03;98241.07;515328;1095;104579;-39
2020/12/08 18:33:45;;;;;;;66.80;32.30;;;;;;;-1.45;81.76;98230.52;515345;1095;104587;-40
2020/12/08 18:43:50;;;;;;;68.23;32.47;;;;;;;-1.52;82.21;98240.73;515303;1095;104584;-42
2020/12/08 18:53:55;;;;;;;59.70;29.27;;;;;;;-1.56;82.37;98237.66;515309;1095;104556;-40
2020/12/08 19:04:01;;;;;;;64.90;30.90;;;;;;;-1.59;82.55;98247.55;515283;1095;104885;-40
2020/12/08 19:14:06;;;;;;;69.00;32.73;;;;;;;-1.66;81.81;98249.15;515420;1095;104964;-40
2020/12/08 19:24:11;;;;;;;66.57;30.87;;;;;;;-1.67;82.01;98250.93;515391;1095;105175;-40
2020/12/08 19:34:16;;;;;;;63.80;31.43;;;;;;;-1.70;82.11;98258.22;515311;1095;104984;-41
2020/12/08 19:44:20;;;;;;;56.93;28.20;;;;;;;-1.75;82.36;98256.12;515454;1095;104634;-40
2020/12/08 19:54:25;;;;;;;66.97;30.60;;;;;;;-1.77;82.21;98249.48;515465;1095;105650;-39
2020/12/08 20:04:30;;;;;;;65.93;29.57;;;;;;;-1.80;82.06;98254.98;515284;1095;104545;-40
2020/12/08 20:14:36;;;;;;;66.70;30.93;;;;;;;-1.83;82.43;98258.71;515269;1095;104567;-40
2020/12/08 20:24:40;;;;;;;68.53;28.60;;;;;;;-1.78;82.95;98263.41;515260;1095;104695;-40
2020/12/08 20:34:45;;;;;;;71.30;31.77;;;;;;;-1.67;83.09;98255.30;515291;1095;104638;-40
2020/12/08 20:44:50;;;;;;;73.83;34.07;;;;;;;-1.57;82.75;98268.94;515487;1095;106119;-39
2020/12/08 20:54:55;;;;;;;80.70;35.20;;;;;;;-1.50;82.83;98272.50;515379;1095;104595;-40
2020/12/08 21:05:00;;;;;;;81.50;36.10;;;;;;;-1.41;83.25;98266.36;515276;1095;104596;-40
2020/12/08 21:15:07;;;;;;;84.93;37.87;;;;;;;-1.31;83.60;98277.37;515352;1095;104498;-41
2020/12/08 21:25:12;;;;;;;82.33;36.13;;;;;;;-1.19;83.82;98279.61;515451;1095;104606;-40
2020/12/08 21:35:17;;;;;;;88.77;34.70;;;;;;;-1.13;83.38;98278.98;515214;1095;104583;-40
2020/12/08 21:45:22;;;;;;;74.47;34.43;;;;;;;-1.08;83.72;98276.70;515474;1095;104916;-40
2020/12/08 21:55:27;;;;;;;72.27;33.40;;;;;;;-1.00;84.15;98268.89;515381;1095;104580;-39
2020/12/08 22:05:32;;;;;;;82.20;36.30;;;;;;;-0.95;83.96;98282.18;515525;1095;105030;-41
2020/12/08 22:15:37;;;;;;;73.87;32.07;;;;;;;-0.87;83.92;98289.16;515308;1095;104674;-40
2020/12/08 22:25:44;;;;;;;71.65;33.55;;;;;;;-0.83;83.82;98286.06;515356;1095;104603;-40
2020/12/08 22:35:48;;;;;;;75.53;33.20;;;;;;;-0.81;84.46;98284.11;515247;1095;104583;-42
2020/12/08 22:45:54;;;;;;;55.83;28.33;;;;;;;-0.73;84.43;98273.70;515425;1095;104587;-40
2020/12/08 22:56:00;;;;;;;76.80;34.63;;;;;;;-0.69;84.04;98269.00;515357;1095;104577;-40
2020/12/08 23:06:05;;;;;;;63.17;30.17;;;;;;;-0.66;84.36;98256.49;515233;1095;104586;-42
2020/12/08 23:16:10;;;;;;;63.07;28.30;;;;;;;-0.69;83.85;98259.43;515308;1095;104932;-40
2020/12/08 23:36:33;;;;;;;63.90;31.03;;;;;;;-0.82;83.86;98259.12;515252;1095;104608;-41
2020/12/08 23:46:38;;;;;;;57.70;29.27;;;;;;;-0.90;84.25;98253.97;515500;1095;104978;-41
